Flight Track Log - Related Links

Times and Time Zones

All times are in EDT time to prevent confusion due to time zone crossing. See the DAL3860 flight status page for this flight to view local times or setup timezone preferences in your user account.

Time Position Orientation Groundspeed Altitude Reporting Facility
EDT Latitude Longitude Course Direction KTS MPH feet Rate Location/Type
Sat 09:12:31 41.3939 -81.8786 270° West 162 186 1,700  Level Cleveland Center
Sat 09:13:01 41.3956 -81.9144 274° West 190 219 2,500 2,312 Climbing Cleveland Center
Sat 09:14:20 41.3964 -82.0308 271° West 270 311 5,900 2,957 Climbing Cleveland Center
Sat 09:15:00 41.3495 -82.2459 260° West  Level FlightAware Approximate
Sat 09:15:21 41.3931 -82.1194 267° West 281 323 9,400  Level Cleveland Center
Sat 09:16:00 41.3302 -82.3793 252° West  Level FlightAware Approximate
Sat 09:16:21 41.3664 -82.2403 254° West 290 334 11,000  Level Cleveland Center
Sat 09:17:00 41.3000 -82.5088 270° West  Level FlightAware Approximate
Sat 09:17:21 41.3394 -82.3725 255° West 343 395 13,300  Level Cleveland Center
Sat 09:18:21 41.3100 -82.5100 254° West 377 434 15,200 1,850 Climbing Cleveland Center
Sat 09:19:21 41.2908 -82.6503 260° West 394 453 17,000 1,450 Climbing Cleveland Center
Sat 09:20:21 41.2694 -82.7961 259° West 394 453 18,100 1,200 Climbing Cleveland Center
Sat 09:21:21 41.2497 -82.9444 260° West 407 468 19,400 1,200 Climbing Cleveland Center
Sat 09:22:21 41.2778 -83.0919 284° West 407 468 20,500 1,050 Climbing Cleveland Center
Sat 09:23:21 41.3206 -83.2347 292° West 417 480 21,500 1,050 Climbing Cleveland Center
Sat 09:24:21 41.3672 -83.3750 294° West 417 480 22,600 1,000 Climbing Cleveland Center
Sat 09:25:21 41.4117 -83.5181 293° West 417 480 23,500 850 Climbing Cleveland Center
Sat 09:26:21 41.4642 -83.6589 296° West 422 486 24,300 750 Climbing Cleveland Center
Sat 09:27:21 41.5186 -83.7975 298° West 422 486 25,000 650 Climbing Cleveland Center
Sat 09:28:21 41.5750 -83.9419 298° West 434 499 25,600 600 Climbing Cleveland Center
Sat 09:29:21 41.6272 -84.0836 296° West 434 499 26,200 600 Climbing Cleveland Center
Sat 09:31:41 41.7567 -84.4139 298° West 431 496 27,600 594 Climbing Chicago Center
Sat 09:32:43 41.8092 -84.5547 297° West 428 493 28,200 585 Climbing Chicago Center
Sat 09:33:44 41.8628 -84.6958 297° West 428 493 28,800 537 Climbing Chicago Center
Sat 09:34:46 41.9156 -84.8381 297° West 428 493 29,300 488 Climbing Chicago Center
Sat 09:35:47 41.9672 -84.9789 296° West 427 491 29,800 341 Climbing Chicago Center
Sat 09:36:49 42.0219 -85.1303 296° West 428 493 30,000 98 Climbing Chicago Center
Sat 09:37:50 42.0767 -85.2767 297° West 436 502 30,000  Level Chicago Center
Sat 09:38:52 42.1303 -85.4253 296° West 442 509 30,000  Level Chicago Center
Sat 09:39:53 42.1856 -85.5764 296° West 447 514 30,000  Level Chicago Center
Sat 09:40:55 42.2397 -85.7269 296° West 447 514 30,000  Level Chicago Center
Sat 09:41:56 42.3047 -85.9075 296° West 443 510 30,000  Level Chicago Center
Sat 09:42:58 42.3686 -86.0564 300° West 453 521 30,000  Level Chicago Center
Sat 09:43:59 42.4364 -86.1994 303° West 450 518 30,000  Level Chicago Center
Sat 09:45:01 42.5036 -86.3469 302° West 456 525 30,000  Level Chicago Center
Sat 09:46:03 42.5711 -86.4903 303° West 452 520 30,000  Level Chicago Center
Sat 09:47:04 42.6375 -86.6383 301° West 455 524 30,000  Level Chicago Center
Sat 09:48:06 42.7047 -86.7839 302° West 455 524 30,000  Level Chicago Center
Sat 09:49:07 42.7708 -86.9297 302° West 452 520 30,000  Level Chicago Center
Sat 09:50:09 42.8378 -87.0761 302° West 452 520 30,000  Level Chicago Center
Sat 09:51:10 42.9044 -87.2236 302° West 455 524 30,000  Level Chicago Center
Sat 09:52:12 42.9833 -87.4014 301° West 454 522 30,000  Level Chicago Center
Sat 09:53:14 43.0497 -87.5503 301° West 458 527 30,000  Level Chicago Center
Sat 09:54:15 43.1147 -87.6964 301° West 452 520 30,000  Level Chicago Center
Sat 09:55:17 43.1789 -87.8408 301° West 444 511 30,000  Level Chicago Center
Sat 09:56:18 43.2425 -87.9872 301° West 446 513 30,000  Level Chicago Center
Sat 09:57:20 43.3067 -88.1336 301° West 448 516 30,000  Level Chicago Center
Sat 09:58:22 43.3803 -88.3028 301° West 441 507 30,000  Level Chicago Center
Sat 09:59:23 43.4331 -88.4264 300° West 451 519 30,000  Level Chicago Center
Sat 10:00:25 43.5067 -88.5919 302° West 455 524 30,000  Level Chicago Center
Sat 10:01:27 43.5644 -88.7333 299° West 438 504 30,000  Level Chicago Center
Sat 10:02:28 43.6372 -88.9058 300° West 445 512 30,000  Level Chicago Center
Sat 10:03:30 43.6997 -89.0531 300° West 444 511 30,000  Level Chicago Center
Sat 10:04:32 43.7611 -89.2008 300° West 445 512 30,000  Level Chicago Center
Sat 10:05:33 43.8247 -89.3489 301° West 446 513 30,000  Level Chicago Center
Sat 10:06:35 43.8850 -89.4978 299° West 444 511 30,000  Level Chicago Center
Sat 10:07:37 43.9475 -89.6447 301° West 443 510 30,000  Level Chicago Center
Sat 10:08:38 44.0089 -89.7947 300° West 446 513 30,000  Level Chicago Center
Sat 10:09:47 44.0792 -89.9672 300° West 441 507 30,000  Level Minneapolis Center
Sat 10:10:49 44.1536 -90.1022 308° West 440 506 30,000  Level Minneapolis Center
Sat 10:11:50 44.2403 -90.2586 308° West 436 502 30,000  Level Minneapolis Center
Sat 10:12:51 44.3056 -90.4031 302° West 439 505 30,000  Level Minneapolis Center
Sat 10:13:53 44.3647 -90.5511 299° West 438 504 30,000  Level Minneapolis Center
Sat 10:14:54 44.4264 -90.6975 301° West 437 503 30,000 -541 Level Minneapolis Center
Sat 10:15:55 44.4861 -90.8472 299° West 442 509 28,900 -1,561 Descending Minneapolis Center
Sat 10:16:57 44.5481 -90.9983 300° West 434 499 26,800 -2,000 Descending Minneapolis Center
Sat 10:17:58 44.6033 -91.1375 299° West 418 481 24,800 -1,951 Descending Minneapolis Center
Sat 10:19:00 44.6569 -91.2739 299° West 407 468 22,800 -1,951 Descending Minneapolis Center
Sat 10:20:01 44.7106 -91.4075 299° West 398 458 20,800 -1,869 Descending Minneapolis Center
Sat 10:21:02 44.7614 -91.5381 299° West 388 447 19,000 -1,659 Descending Minneapolis Center
Sat 10:22:04 44.8114 -91.6689 298° West 382 440 17,400 -1,756 Descending Minneapolis Center
Sat 10:23:05 44.8692 -91.8169 299° West 367 422 15,400 -1,805 Descending Minneapolis Center
Sat 10:24:07 44.9161 -91.9381 299° West 357 411 13,700 -1,561 Descending Minneapolis Center
Sat 10:25:08 44.9636 -92.0614 299° West 360 414 12,200 -1,111 Descending Minneapolis Center
Sat 10:26:22 45.0097 -92.1817 299° West 350 403 11,200 -533 Descending Minneapolis Center
Sat 10:27:23 45.0450 -92.3056 292° West 350 403 11,000 -98 Descending Minneapolis Center
Sat 10:28:25 45.0219 -92.4636 258° West 346 398 11,000  Level Minneapolis Center
Sat 10:29:27 44.9972 -92.6217 258° West 344 396 11,000  Level Minneapolis Center
Sat 10:30:28 44.9758 -92.7519 257° West 343 395 11,000 -390 Level Minneapolis Center
Sat 10:31:30 44.9567 -92.8714 257° West 309 356 10,200 -1,122 Descending Minneapolis Center
Sat 10:32:31 44.9397 -92.9781 257° West 282 325 8,700 -1,073 Descending Minneapolis Center
Sat 10:33:33 44.9317 -93.0811 264° West 278 320 8,000 -585 Descending Minneapolis Center
Sat 10:34:34 44.9719 -93.1711 302° West 274 315 7,500 -1,317 Descending Minneapolis Center
Sat 10:35:36 45.0206 -93.2778 303° West 270 311 5,300 -1,707 Descending Minneapolis Center
Sat 10:36:37 45.0361 -93.3653 284° West 251 289 4,000 -1,279 Descending Minneapolis Center

Login

Don't have an account? Register now (free) for customized features, flight alerts, and more!